Silver Creek, Minnesota
Current Conditions -  °F | °C
As of 3:15 AM on Monday 22 Dec 2014 (Local Time) from KMGG Reporting Station
Haze Haze  
Wind Chill: 32°   Ceiling: 300
Heat Index: 38°   Visibility: 3mi
Dew Point: 38°   Wind: 8mph
Humidity: 99%   Direction: 140°SE
Pressure: 29.65"   Gusts: NA
Location:  45.31°N, 93.98°W
Report Text: KMGG 220915Z AUTO 14007KT 3SM BR OVC003 03/03 A2965 RMK AO2 T00330031
Loading
Personal Weather Stations






























Interactive Weather Map New forecast layout! Learn more

10-Day Weather Forecast

Advertisements
Track Severe Weather on mobile